createdAt,value
2019-01-29T00:01:25.426Z,5.17
2019-01-29T00:03:54.700Z,4.67
2019-01-29T00:06:24.571Z,4.83
2019-01-29T00:08:53.897Z,3.00
2019-01-29T00:11:23.070Z,4.00
2019-01-29T00:13:53.161Z,4.13
2019-01-29T00:16:23.080Z,3.90
2019-01-29T00:18:53.002Z,3.80
2019-01-29T00:21:22.910Z,3.63
2019-01-29T00:23:52.842Z,2.73
2019-01-29T00:26:22.852Z,3.53
2019-01-29T00:28:52.730Z,4.07
2019-01-29T00:31:22.677Z,3.70
2019-01-29T00:33:51.917Z,3.37
2019-01-29T00:36:21.065Z,3.80
2019-01-29T00:38:50.875Z,3.67
2019-01-29T00:41:20.831Z,4.27
2019-01-29T00:43:50.156Z,3.37
2019-01-29T00:46:19.385Z,3.30
2019-01-29T00:48:49.167Z,3.50
2019-01-29T00:51:19.101Z,3.17
2019-01-29T00:53:49.065Z,4.00
2019-01-29T00:56:19.030Z,3.10
2019-01-29T00:58:48.960Z,3.30
2019-01-29T01:01:18.910Z,3.10
2019-01-29T01:03:48.813Z,3.20
2019-01-29T01:06:18.754Z,3.53
2019-01-29T01:08:48.346Z,2.80
2019-01-29T01:11:18.201Z,3.10
2019-01-29T01:13:48.148Z,3.13
2019-01-29T01:16:17.738Z,3.90
2019-01-29T01:18:47.558Z,3.33
2019-01-29T01:21:17.413Z,3.70
2019-01-29T01:23:46.662Z,4.13
2019-01-29T01:26:16.461Z,3.20
2019-01-29T01:28:46.321Z,3.00
2019-01-29T01:31:16.210Z,2.90
2019-01-29T01:33:46.174Z,3.10
2019-01-29T01:36:16.068Z,3.27
2019-01-29T01:38:45.329Z,3.03
2019-01-29T01:41:15.155Z,2.67
2019-01-29T01:43:45.140Z,3.10
2019-01-29T01:46:15.042Z,2.87
2019-01-29T01:48:45.002Z,2.87
2019-01-29T01:51:14.997Z,2.90
2019-01-29T01:53:44.931Z,2.80
2019-01-29T01:56:14.849Z,3.33
2019-01-29T01:58:44.173Z,3.10
2019-01-29T02:01:14.017Z,3.30
2019-01-29T02:03:43.967Z,3.00
2019-01-29T02:06:13.891Z,2.80
2019-01-29T02:08:43.249Z,3.10
2019-01-29T02:11:13.082Z,3.03
2019-01-29T02:13:43.023Z,3.27
2019-01-29T02:16:12.935Z,2.67
2019-01-29T02:18:44.346Z,3.10
2019-01-29T02:21:14.409Z,3.50
2019-01-29T02:23:44.352Z,3.60
2019-01-29T02:26:14.262Z,3.13
2019-01-29T02:28:43.657Z,3.50
2019-01-29T02:31:13.474Z,3.40
2019-01-29T02:33:43.441Z,3.50
2019-01-29T02:36:13.365Z,3.20
2019-01-29T02:38:43.337Z,3.20
2019-01-29T02:41:13.369Z,4.10
2019-01-29T02:43:42.716Z,3.57
2019-01-29T02:46:12.998Z,3.00
2019-01-29T02:48:42.326Z,2.90
2019-01-29T02:51:12.117Z,3.10
2019-01-29T02:53:42.290Z,3.03
2019-01-29T02:56:12.206Z,3.50
2019-01-29T02:58:42.145Z,3.10
2019-01-29T03:01:12.141Z,3.63
2019-01-29T03:03:41.501Z,3.73
2019-01-29T03:06:11.552Z,3.57
2019-01-29T03:08:40.930Z,3.47
2019-01-29T03:11:11.081Z,3.17
2019-01-29T03:13:41.366Z,3.43
2019-01-29T03:16:11.382Z,2.63
2019-01-29T03:18:41.322Z,3.10
2019-01-29T03:21:11.224Z,3.13
2019-01-29T03:23:40.483Z,3.33
2019-01-29T03:26:09.746Z,3.90
2019-01-29T03:28:39.645Z,3.20
2019-01-29T03:31:09.565Z,3.30
2019-01-29T03:33:39.504Z,3.03
2019-01-29T03:36:09.455Z,3.10
2019-01-29T03:38:39.317Z,3.20
2019-01-29T03:41:09.251Z,3.60
2019-01-29T03:43:38.496Z,2.80
2019-01-29T03:46:08.372Z,3.10
2019-01-29T03:48:37.720Z,2.93
2019-01-29T03:51:07.010Z,3.27
2019-01-29T03:53:38.180Z,3.40
2019-01-29T03:56:07.647Z,3.60
2019-01-29T03:58:37.832Z,3.67
2019-01-29T04:01:08.261Z,3.77
2019-01-29T04:03:37.497Z,3.00
2019-01-29T04:06:07.541Z,3.80
2019-01-29T04:08:37.398Z,4.40
2019-01-29T04:11:07.342Z,4.20
2019-01-29T04:13:37.246Z,3.50
2019-01-29T04:16:07.213Z,4.50
2019-01-29T04:18:37.154Z,3.93
2019-01-29T04:21:06.485Z,4.30
2019-01-29T04:23:36.266Z,3.80
2019-01-29T04:26:06.137Z,3.70
2019-01-29T04:28:35.444Z,4.07
2019-01-29T04:31:05.385Z,4.40
2019-01-29T04:33:35.308Z,4.43
2019-01-29T04:36:05.572Z,3.77
2019-01-29T04:38:34.909Z,4.20
2019-01-29T04:41:04.992Z,3.53
2019-01-29T04:43:34.533Z,4.47
2019-01-29T04:46:04.002Z,4.17
2019-01-29T04:48:33.262Z,4.00
2019-01-29T04:51:02.808Z,4.17
2019-01-29T04:53:32.314Z,4.20
2019-01-29T04:56:01.557Z,3.67
2019-01-29T04:58:30.820Z,4.20
2019-01-29T05:01:00.066Z,4.20
2019-01-29T05:03:30.452Z,3.93
2019-01-29T05:06:00.384Z,3.83
2019-01-29T05:08:30.320Z,4.03
2019-01-29T05:10:59.603Z,3.53
2019-01-29T05:13:29.342Z,4.07
2019-01-29T05:15:59.197Z,4.20
2019-01-29T05:18:29.036Z,4.30
2019-01-29T05:20:58.373Z,4.10
2019-01-29T05:23:27.517Z,4.57
2019-01-29T05:25:57.389Z,4.67
2019-01-29T05:28:26.654Z,4.57
2019-01-29T05:30:56.521Z,4.23
2019-01-29T05:33:26.427Z,3.67
2019-01-29T05:35:56.389Z,3.73
2019-01-29T05:38:25.756Z,4.23
2019-01-29T05:40:54.952Z,4.57
2019-01-29T05:43:24.821Z,3.50
2019-01-29T05:45:54.721Z,4.40
2019-01-29T05:48:23.969Z,4.13
2019-01-29T05:50:53.732Z,3.80
2019-01-29T05:53:23.586Z,3.73
2019-01-29T05:55:53.416Z,4.53
2019-01-29T05:58:23.281Z,4.00
2019-01-29T06:00:53.185Z,3.97
2019-01-29T06:03:22.465Z,3.90
2019-01-29T06:05:52.936Z,4.50
2019-01-29T06:08:22.204Z,3.70
2019-01-29T06:10:52.057Z,3.90
2019-01-29T06:13:22.326Z,4.13
2019-01-29T06:15:51.643Z,4.20
2019-01-29T06:18:21.939Z,4.20
2019-01-29T06:20:51.898Z,4.67
2019-01-29T06:23:21.225Z,4.70
2019-01-29T06:25:50.470Z,4.87
2019-01-29T06:28:19.678Z,5.07
2019-01-29T06:30:49.525Z,4.43
2019-01-29T06:33:19.582Z,4.20
2019-01-29T06:35:48.831Z,4.33
2019-01-29T06:38:20.032Z,3.53
2019-01-29T06:40:49.328Z,4.17
2019-01-29T06:43:18.646Z,4.33
2019-01-29T06:45:48.087Z,4.40
2019-01-29T06:48:17.848Z,3.73
2019-01-29T06:50:47.098Z,3.93
2019-01-29T06:53:16.376Z,3.60
2019-01-29T06:55:46.198Z,3.93
2019-01-29T06:58:15.557Z,3.97
2019-01-29T07:00:44.748Z,3.97
2019-01-29T07:03:14.522Z,4.67
2019-01-29T07:05:44.439Z,4.53
2019-01-29T07:08:14.373Z,3.87
2019-01-29T07:10:44.343Z,3.70
2019-01-29T07:13:14.318Z,4.07
2019-01-29T07:16:17.693Z,4.20
2019-01-29T07:18:55.468Z,4.57
2019-01-29T07:21:24.608Z,4.10
2019-01-29T07:23:53.862Z,3.83
2019-01-29T07:26:23.041Z,3.67
2019-01-29T07:28:52.276Z,3.90
2019-01-29T07:31:22.104Z,3.87
2019-01-29T07:33:51.707Z,4.23
2019-01-29T07:36:20.975Z,4.33
2019-01-29T07:38:51.097Z,5.13
2019-01-29T07:41:20.634Z,4.47
2019-01-29T07:43:49.868Z,4.17
2019-01-29T07:46:19.753Z,3.97
2019-01-29T07:48:49.611Z,3.67
2019-01-29T07:51:18.952Z,3.23
2019-01-29T07:53:48.123Z,3.60
2019-01-29T07:56:17.937Z,3.47
2019-01-29T07:58:49.236Z,3.37
2019-01-29T08:01:19.251Z,3.43
2019-01-29T08:03:49.178Z,3.47
2019-01-29T08:06:19.051Z,3.30
2019-01-29T08:08:49.015Z,3.67
2019-01-29T08:11:18.930Z,3.13
2019-01-29T08:13:48.286Z,3.23
2019-01-29T08:16:18.363Z,2.90
2019-01-29T08:18:47.597Z,3.73
2019-01-29T08:21:17.434Z,3.30
2019-01-29T08:23:47.341Z,3.30
2019-01-29T08:26:17.272Z,3.20
2019-01-29T08:28:47.204Z,2.63
2019-01-29T08:31:16.571Z,3.17
2019-01-29T08:33:46.419Z,3.10
2019-01-29T08:36:16.293Z,3.17
2019-01-29T08:38:46.162Z,3.20
2019-01-29T08:41:16.093Z,3.57
2019-01-29T08:43:45.909Z,3.10
2019-01-29T08:46:16.341Z,3.27
2019-01-29T08:48:46.198Z,3.03
2019-01-29T08:51:16.201Z,3.00
2019-01-29T08:53:46.105Z,3.73
2019-01-29T08:56:15.388Z,2.77
2019-01-29T08:58:44.524Z,2.57
2019-01-29T09:01:13.784Z,2.73
2019-01-29T09:03:43.294Z,3.33
2019-01-29T09:06:13.137Z,2.97
2019-01-29T09:08:42.480Z,3.17
2019-01-29T09:11:11.712Z,3.47
2019-01-29T09:13:40.944Z,4.17
2019-01-29T09:16:10.778Z,3.67
2019-01-29T09:18:40.980Z,2.60
2019-01-29T09:21:10.252Z,2.70
2019-01-29T09:23:40.186Z,3.23
2019-01-29T09:26:10.154Z,3.03
2019-01-29T09:28:39.612Z,3.63
2019-01-29T09:31:08.870Z,2.93
2019-01-29T09:33:38.775Z,2.87
2019-01-29T09:36:08.710Z,2.30
2019-01-29T09:38:38.856Z,1.87
2019-01-29T09:41:08.214Z,2.37
2019-01-29T09:43:38.032Z,1.70
2019-01-29T09:46:07.339Z,2.10
2019-01-29T09:48:37.199Z,2.30
2019-01-29T09:51:07.113Z,2.50
2019-01-29T09:53:36.361Z,2.00
2019-01-29T09:56:05.609Z,1.70
2019-01-29T09:58:35.417Z,2.03
2019-01-29T10:01:04.923Z,1.83
2019-01-29T10:03:34.954Z,1.90
2019-01-29T10:06:05.028Z,1.70
2019-01-29T10:08:34.350Z,1.87
2019-01-29T10:11:04.263Z,2.07
2019-01-29T10:13:33.805Z,2.30
2019-01-29T10:16:03.085Z,2.80
2019-01-29T10:18:32.902Z,2.80
2019-01-29T10:21:02.921Z,2.40
2019-01-29T10:23:32.860Z,2.23
2019-01-29T10:26:02.728Z,1.70
2019-01-29T10:28:32.725Z,2.30
2019-01-29T10:31:02.541Z,2.07
2019-01-29T10:33:31.861Z,2.13
2019-01-29T10:36:02.302Z,1.83
2019-01-29T10:38:32.149Z,2.10
2019-01-29T10:41:02.008Z,2.00
2019-01-29T10:43:31.966Z,2.00
2019-01-29T10:46:01.264Z,2.00
2019-01-29T10:48:30.486Z,2.70
2019-01-29T10:50:59.774Z,2.00
2019-01-29T10:53:29.040Z,1.70
2019-01-29T10:55:58.812Z,1.93
2019-01-29T10:58:28.117Z,2.00
2019-01-29T11:00:57.940Z,1.93
2019-01-29T11:03:27.365Z,2.23
2019-01-29T11:05:57.199Z,2.10
2019-01-29T11:08:26.513Z,2.20
2019-01-29T11:10:56.297Z,1.77
2019-01-29T11:13:25.814Z,2.20
2019-01-29T11:15:55.732Z,1.70
2019-01-29T11:18:25.670Z,2.07
2019-01-29T11:20:55.001Z,1.63
2019-01-29T11:23:24.945Z,1.30
2019-01-29T11:25:56.144Z,1.77
2019-01-29T11:28:25.684Z,1.77
2019-01-29T11:30:54.874Z,1.97
2019-01-29T11:33:24.812Z,2.03
2019-01-29T11:35:54.689Z,1.73
2019-01-29T11:38:24.628Z,1.97
2019-01-29T11:40:54.114Z,2.20
2019-01-29T11:43:23.995Z,1.80
2019-01-29T11:45:53.882Z,2.17
2019-01-29T11:48:23.851Z,1.83
2019-01-29T11:50:53.241Z,1.30
2019-01-29T11:53:23.201Z,1.20
2019-01-29T11:55:53.595Z,1.73
2019-01-29T11:58:23.465Z,1.27
2019-01-29T12:00:57.477Z,1.90
2019-01-29T12:03:27.758Z,1.67
2019-01-29T12:05:57.872Z,1.67
2019-01-29T12:08:27.797Z,1.60
2019-01-29T12:10:57.549Z,2.00
2019-01-29T12:13:27.310Z,2.00
2019-01-29T12:15:56.615Z,2.10
2019-01-29T12:18:26.389Z,2.03
2019-01-29T12:20:56.600Z,2.00
2019-01-29T12:23:26.161Z,1.90
2019-01-29T12:25:55.292Z,1.90
2019-01-29T12:28:25.465Z,2.20
2019-01-29T12:30:57.217Z,2.27
2019-01-29T12:33:26.456Z,1.97
2019-01-29T12:35:55.743Z,1.77
2019-01-29T12:38:25.025Z,1.90
2019-01-29T12:40:54.916Z,2.30
2019-01-29T12:43:24.892Z,3.30
2019-01-29T12:45:54.882Z,1.87
2019-01-29T12:48:24.843Z,2.33
2019-01-29T12:50:59.002Z,1.83
2019-01-29T12:53:35.761Z,1.90
2019-01-29T12:56:06.342Z,2.07
2019-01-29T12:58:36.205Z,2.10
2019-01-29T13:01:06.734Z,1.80
2019-01-29T13:03:36.645Z,2.00
2019-01-29T13:06:06.919Z,1.60
2019-01-29T13:08:36.319Z,1.37
2019-01-29T13:11:07.128Z,1.27
2019-01-29T13:13:37.159Z,1.60
2019-01-29T13:16:07.109Z,1.50
2019-01-29T13:18:37.053Z,1.53
2019-01-29T13:21:06.441Z,1.53
2019-01-29T13:23:36.306Z,1.30
2019-01-29T13:26:06.258Z,1.57
2019-01-29T13:28:36.114Z,1.50
2019-01-29T13:31:05.710Z,1.30
2019-01-29T13:33:35.458Z,1.40
2019-01-29T13:36:07.945Z,1.10
2019-01-29T13:38:37.874Z,1.10
2019-01-29T13:41:07.746Z,1.23
2019-01-29T13:43:37.001Z,1.50
2019-01-29T13:46:06.272Z,1.20
2019-01-29T13:48:36.065Z,1.20
2019-01-29T13:51:06.183Z,1.20
2019-01-29T13:53:37.015Z,1.30
2019-01-29T13:56:08.301Z,1.00
2019-01-29T13:58:38.214Z,1.00
2019-01-29T14:01:07.537Z,1.43
2019-01-29T14:03:36.693Z,1.00
2019-01-29T14:06:06.579Z,1.20
2019-01-29T14:08:36.464Z,1.40
2019-01-29T14:11:06.873Z,1.30
2019-01-29T14:13:36.418Z,1.57
2019-01-29T14:16:10.473Z,1.33
2019-01-29T14:18:40.398Z,1.40
2019-01-29T14:21:09.719Z,1.17
2019-01-29T14:23:39.497Z,1.60
2019-01-29T14:26:09.523Z,1.80
2019-01-29T14:28:38.774Z,1.30
2019-01-29T14:31:08.634Z,1.73
2019-01-29T14:33:38.554Z,1.70
2019-01-29T14:36:16.480Z,1.57
2019-01-29T14:39:23.908Z,1.80
2019-01-29T14:41:53.868Z,1.73
2019-01-29T14:44:24.819Z,2.27
2019-01-29T14:46:54.619Z,1.70
2019-01-29T14:49:24.549Z,2.20
2019-01-29T14:51:54.556Z,1.60
2019-01-29T14:54:24.497Z,1.83
2019-01-29T14:56:57.049Z,1.60
2019-01-29T14:59:25.995Z,1.43
2019-01-29T15:01:55.959Z,1.63
2019-01-29T15:04:25.363Z,1.87
2019-01-29T15:06:55.214Z,1.40
2019-01-29T15:09:25.255Z,1.23
2019-01-29T15:11:54.610Z,1.33
2019-01-29T15:14:25.557Z,1.30
2019-01-29T15:17:04.876Z,1.47
2019-01-29T15:19:35.801Z,1.90
2019-01-29T15:22:06.220Z,1.33
2019-01-29T15:24:36.353Z,2.23
2019-01-29T15:27:06.698Z,2.20
2019-01-29T15:29:36.022Z,2.27
2019-01-29T15:32:06.183Z,2.50
2019-01-29T15:34:36.492Z,3.20
2019-01-29T15:37:06.545Z,2.30
2019-01-29T15:39:36.537Z,2.30
2019-01-29T15:42:07.217Z,2.40
2019-01-29T15:44:37.248Z,3.90
2019-01-29T15:47:07.624Z,2.53
2019-01-29T15:49:37.642Z,2.83
2019-01-29T15:52:07.601Z,2.57
2019-01-29T15:54:38.068Z,2.10
2019-01-29T15:57:13.995Z,3.00
2019-01-29T15:59:43.085Z,2.27
2019-01-29T16:02:11.958Z,3.03
2019-01-29T16:04:43.017Z,2.50
2019-01-29T16:07:13.609Z,3.10
2019-01-29T16:09:45.332Z,2.70
2019-01-29T16:12:16.749Z,2.43
2019-01-29T16:14:48.177Z,2.70
2019-01-29T16:17:18.918Z,3.00
2019-01-29T16:19:48.900Z,2.90
2019-01-29T16:22:18.813Z,3.03
2019-01-29T16:24:49.167Z,3.03
2019-01-29T16:27:22.877Z,3.47
2019-01-29T16:29:50.900Z,2.97
2019-01-29T16:32:21.656Z,2.90
2019-01-29T16:34:53.201Z,3.00
2019-01-29T16:37:23.905Z,2.90
2019-01-29T16:39:53.834Z,3.00
2019-01-29T16:42:24.669Z,3.87
2019-01-29T16:44:55.075Z,3.73
2019-01-29T16:47:25.427Z,3.67
2019-01-29T16:49:56.412Z,3.23
2019-01-29T16:52:26.908Z,3.70
2019-01-29T16:54:58.406Z,3.03
2019-01-29T16:57:31.679Z,2.90
2019-01-29T17:00:01.215Z,2.93
2019-01-29T17:02:31.995Z,3.67
2019-01-29T17:05:01.972Z,3.30
2019-01-29T17:07:32.692Z,3.17
2019-01-29T17:10:03.662Z,3.60
2019-01-29T17:12:35.138Z,3.67
2019-01-29T17:15:08.214Z,3.80
2019-01-29T17:17:40.443Z,3.50
2019-01-29T17:20:16.051Z,4.10
2019-01-29T17:22:48.003Z,3.00
2019-01-29T17:25:20.321Z,3.87
2019-01-29T17:27:52.370Z,3.10
2019-01-29T17:30:40.235Z,3.77
2019-01-29T17:33:14.233Z,3.83
2019-01-29T17:35:46.297Z,4.00
2019-01-29T17:38:17.762Z,2.90
2019-01-29T17:40:50.048Z,3.20
2019-01-29T17:43:22.369Z,3.57
2019-01-29T17:45:54.511Z,3.23
2019-01-29T17:48:26.683Z,3.53
2019-01-29T17:50:58.625Z,3.80
2019-01-29T17:53:30.520Z,3.90
2019-01-29T17:56:03.230Z,3.10
2019-01-29T17:58:35.690Z,3.50
2019-01-29T18:01:08.985Z,3.23
2019-01-29T18:03:41.344Z,3.20
2019-01-29T18:06:14.400Z,3.40
2019-01-29T18:08:49.905Z,3.37
2019-01-29T18:11:22.669Z,4.10
2019-01-29T18:13:55.535Z,3.63
2019-01-29T18:16:28.086Z,3.80
2019-01-29T18:19:00.905Z,3.40
2019-01-29T18:21:33.304Z,4.63
2019-01-29T18:24:06.008Z,4.40
2019-01-29T18:26:38.149Z,3.57
2019-01-29T18:29:10.184Z,3.20
2019-01-29T18:31:42.378Z,3.73
2019-01-29T18:34:14.254Z,3.73
2019-01-29T18:36:46.961Z,3.20
2019-01-29T18:39:19.302Z,3.80
2019-01-29T18:41:51.862Z,3.53
2019-01-29T18:44:24.778Z,3.30
2019-01-29T18:46:58.070Z,3.17
2019-01-29T18:49:31.646Z,3.50
2019-01-29T18:52:05.452Z,3.10
2019-01-29T18:54:38.873Z,3.97
2019-01-29T18:57:12.436Z,3.10
2019-01-29T18:59:46.352Z,3.30
2019-01-29T19:02:19.969Z,3.10
2019-01-29T19:04:53.561Z,2.27
2019-01-29T19:07:27.134Z,3.43
2019-01-29T19:10:00.715Z,3.40
2019-01-29T19:12:33.757Z,3.13
2019-01-29T19:15:07.457Z,3.60
2019-01-29T19:17:41.248Z,3.57
2019-01-29T19:20:15.768Z,3.73
2019-01-29T19:22:48.849Z,2.73
2019-01-29T19:25:22.073Z,3.30
2019-01-29T19:27:56.884Z,3.50
2019-01-29T19:30:32.929Z,3.30
2019-01-29T19:33:07.101Z,3.27
2019-01-29T19:35:41.428Z,3.90
2019-01-29T19:38:16.652Z,3.10
2019-01-29T19:40:51.645Z,3.90
2019-01-29T19:43:26.568Z,3.00
2019-01-29T19:46:00.706Z,3.53
2019-01-29T19:48:36.092Z,3.77
2019-01-29T19:51:09.477Z,3.97
2019-01-29T19:53:43.727Z,4.07
2019-01-29T19:56:17.838Z,3.70
2019-01-29T19:58:53.745Z,2.93
2019-01-29T20:01:28.478Z,4.17
2019-01-29T20:04:03.229Z,3.77
2019-01-29T20:06:38.206Z,3.77
2019-01-29T20:09:14.528Z,4.00
2019-01-29T20:11:49.298Z,3.67
2019-01-29T20:14:24.703Z,4.40
2019-01-29T20:16:58.837Z,4.90
2019-01-29T20:19:32.590Z,3.83
2019-01-29T20:22:05.540Z,4.07
2019-01-29T20:24:39.329Z,4.60
2019-01-29T20:27:12.909Z,4.37
2019-01-29T20:29:47.023Z,4.20
2019-01-29T20:32:20.426Z,4.90
2019-01-29T20:34:52.282Z,3.53
2019-01-29T20:37:23.981Z,3.93
2019-01-29T20:39:56.441Z,3.97
2019-01-29T20:42:28.418Z,3.43
2019-01-29T20:44:59.948Z,4.03
2019-01-29T20:47:31.943Z,4.17
2019-01-29T20:50:04.188Z,4.20
2019-01-29T20:52:35.339Z,4.17
2019-01-29T20:55:06.290Z,4.67
2019-01-29T20:57:36.706Z,3.43
2019-01-29T21:00:12.170Z,3.00
2019-01-29T21:02:43.529Z,3.87
2019-01-29T21:05:15.289Z,3.03
2019-01-29T21:07:45.994Z,3.73
2019-01-29T21:10:18.157Z,3.60
2019-01-29T21:12:48.518Z,3.50
2019-01-29T21:15:20.134Z,2.53
2019-01-29T21:17:51.517Z,3.90
2019-01-29T21:20:26.477Z,3.77
2019-01-29T21:22:57.110Z,3.97
2019-01-29T21:25:27.181Z,3.40
2019-01-29T21:27:57.477Z,3.40
2019-01-29T21:30:35.550Z,3.50
2019-01-29T21:33:05.497Z,4.30
2019-01-29T21:35:35.609Z,3.80
2019-01-29T21:38:05.855Z,3.83
2019-01-29T21:40:35.869Z,4.23
2019-01-29T21:43:05.834Z,4.00
2019-01-29T21:45:35.814Z,3.40
2019-01-29T21:48:06.552Z,3.20
2019-01-29T21:50:38.620Z,3.63
2019-01-29T21:53:08.547Z,3.30
2019-01-29T21:55:38.493Z,3.40
2019-01-29T21:58:08.924Z,3.83
2019-01-29T22:00:44.217Z,4.07
2019-01-29T22:03:14.922Z,3.93
2019-01-29T22:05:44.845Z,3.73
2019-01-29T22:08:15.007Z,3.67
2019-01-29T22:10:44.928Z,2.90
2019-01-29T22:13:14.973Z,3.37
2019-01-29T22:15:44.938Z,3.63
2019-01-29T22:18:15.508Z,4.17
2019-01-29T22:20:46.904Z,4.03
2019-01-29T22:23:17.357Z,4.13
2019-01-29T22:25:47.286Z,4.27
2019-01-29T22:28:17.302Z,4.00
2019-01-29T22:30:47.221Z,3.73
2019-01-29T22:33:17.355Z,4.10
2019-01-29T22:35:47.269Z,4.13
2019-01-29T22:38:17.228Z,4.23
2019-01-29T22:40:47.168Z,4.00
2019-01-29T22:43:17.116Z,3.87
2019-01-29T22:45:47.070Z,4.23
2019-01-29T22:48:17.022Z,3.50
2019-01-29T22:50:46.993Z,3.80
2019-01-29T22:53:17.007Z,3.63
2019-01-29T22:55:46.940Z,3.67
2019-01-29T22:58:16.905Z,4.37
2019-01-29T23:01:34.459Z,4.20
2019-01-29T23:04:17.005Z,3.73
2019-01-29T23:06:58.816Z,4.43
2019-01-29T23:09:28.704Z,4.23
2019-01-29T23:11:58.590Z,4.43
2019-01-29T23:14:28.574Z,4.33
2019-01-29T23:16:58.499Z,3.90
2019-01-29T23:19:28.462Z,3.87
2019-01-29T23:21:58.346Z,4.00
2019-01-29T23:24:28.497Z,4.00
2019-01-29T23:26:58.349Z,3.60
2019-01-29T23:29:28.585Z,3.97
2019-01-29T23:31:58.441Z,4.40
2019-01-29T23:34:28.400Z,4.40
2019-01-29T23:36:58.245Z,4.53
2019-01-29T23:39:28.195Z,4.37
2019-01-29T23:41:58.137Z,4.47
2019-01-29T23:44:28.079Z,4.20
2019-01-29T23:46:58.009Z,4.43
2019-01-29T23:49:27.894Z,4.47
2019-01-29T23:51:57.816Z,3.50
2019-01-29T23:54:27.774Z,4.03
2019-01-29T23:56:57.684Z,4.27
2019-01-29T23:59:27.630Z,4.50
